Terminal Aerodrome Forecast
Issued by NWS Quad Cities IA IL

Home | Current Version | Previous Version | Text Only | Print | Product List | Glossary On
Versions: 1 2 3 4 5 6 7 8 9 10 11 12 13 14 15 16 17 18 19 20
000
FTUS43 KDVN 260657 AAA
TAFMLI
TAF AMD
KMLI 260657Z 2607/2706 34002KT P6SM BKN250
      TEMPO 2607/2611 4SM BR
     FM261400 09005KT P6SM FEW070 SCT120
     FM270400 11004KT P6SM VCTS SCT040CB BKN090=

USA.gov is the U.S. government's official web portal to all federal, state and local government web resources and services.